Time;durP1;ratioP1;P1;durP2;ratioP2;P2;SDS_P1;SDS_P2;PMS_P1;PMS_P2;Temp;Humidity;BMP_temperature;BMP_pressure;BME280_temperature;BME280_humidity;BME280_pressure;Samples;Min_cycle;Max_cycle;Signal;HPM_P1;HPM_P2
2021/05/06 00:02:17;;;;;;;3.03;1.80;;;6.20;99.90;;;;;;5064728;28;20230;-63
2021/05/06 00:05:12;;;;;;;2.07;1.90;;;6.20;99.90;;;;;;5063522;28;20191;-64
2021/05/06 00:32:18;;;;;;;1.90;1.80;;;5.90;99.90;;;;;;5066084;28;20203;-63
2021/05/06 00:34:48;;;;;;;1.90;1.90;;;5.80;99.90;;;;;;5069442;28;20299;-63
2021/05/06 00:37:17;;;;;;;3.83;2.00;;;5.80;99.90;;;;;;5069635;28;20257;-63
2021/05/06 00:39:49;;;;;;;3.60;2.47;;;5.70;99.90;;;;;;5070614;28;20198;-63
2021/05/06 00:45:49;;;;;;;3.70;2.23;;;5.70;99.90;;;;;;5064773;28;20242;-63
2021/05/06 00:54:20;;;;;;;4.40;2.33;;;5.40;99.90;;;;;;5069744;28;20309;-63
2021/05/06 00:57:06;;;;;;;2.57;2.40;;;5.40;99.90;;;;;;5069822;28;20673;-63
2021/05/06 01:05:08;;;;;;;2.90;2.30;;;5.20;99.90;;;;;;5068791;28;20187;-63
2021/05/06 01:07:51;;;;;;;3.00;2.30;;;5.20;99.90;;;;;;5070983;28;20249;-63
2021/05/06 01:13:00;;;;;;;2.83;2.73;;;5.10;99.90;;;;;;5053935;28;20224;-64
2021/05/06 01:15:29;;;;;;;3.40;2.63;;;5.10;99.90;;;;;;5067445;28;20216;-63
2021/05/06 01:17:56;;;;;;;5.80;3.10;;;5.00;99.90;;;;;;5064774;28;20294;-63
2021/05/06 01:20:24;;;;;;;3.20;3.00;;;5.00;99.90;;;;;;5063406;28;20203;-63
2021/05/06 01:22:52;;;;;;;3.57;3.30;;;4.90;99.90;;;;;;5069666;28;20228;-63
2021/05/06 01:25:20;;;;;;;3.97;3.00;;;4.90;99.90;;;;;;5069194;28;20245;-63
2021/05/06 01:27:56;;;;;;;5.57;2.90;;;4.80;99.90;;;;;;5069902;28;20701;-63
2021/05/06 01:30:28;;;;;;;3.63;3.33;;;4.80;99.90;;;;;;5067977;28;20188;-63
2021/05/06 01:33:09;;;;;;;3.17;2.93;;;4.70;99.90;;;;;;5068290;28;20562;-63
2021/05/06 01:35:40;;;;;;;3.90;2.93;;;4.60;99.90;;;;;;5068430;28;20302;-63
2021/05/06 01:43:49;;;;;;;5.97;3.20;;;4.60;99.90;;;;;;5065830;28;20387;-63
2021/05/06 01:58:09;;;;;;;4.57;3.27;;;4.80;99.90;;;;;;4997660;28;20206;-63
2021/05/06 02:00:38;;;;;;;3.37;3.10;;;4.80;99.90;;;;;;5046510;28;20307;-63
2021/05/06 02:03:05;;;;;;;3.80;3.50;;;4.90;99.90;;;;;;5062702;28;20283;-63
2021/05/06 02:05:32;;;;;;;4.10;3.40;;;5.00;99.90;;;;;;5064329;28;20282;-63
2021/05/06 02:08:01;;;;;;;4.33;3.40;;;5.00;99.90;;;;;;5067771;28;20238;-63
2021/05/06 02:10:29;;;;;;;6.87;3.33;;;5.00;99.90;;;;;;5069733;28;20249;-63
2021/05/06 02:12:56;;;;;;;3.60;3.30;;;5.00;99.90;;;;;;5073284;28;20287;-63
2021/05/06 02:15:26;;;;;;;6.13;3.23;;;5.00;99.90;;;;;;5065724;28;20241;-63
2021/05/06 02:17:55;;;;;;;3.60;3.30;;;5.00;99.90;;;;;;5065010;28;20277;-63
2021/05/06 02:20:23;;;;;;;4.53;3.77;;;5.00;99.90;;;;;;5063389;28;20246;-63
2021/05/06 02:22:51;;;;;;;4.90;3.40;;;4.90;99.90;;;;;;5062962;28;20662;-63
2021/05/06 02:25:19;;;;;;;5.07;3.37;;;4.90;99.90;;;;;;5067076;28;20673;-63
2021/05/06 02:27:48;;;;;;;5.47;3.30;;;4.80;99.90;;;;;;5068292;28;20728;-64
2021/05/06 02:30:17;;;;;;;6.13;3.43;;;4.80;99.90;;;;;;5064472;28;20847;-63
2021/05/06 02:32:45;;;;;;;9.63;3.67;;;4.80;99.90;;;;;;5062684;28;20231;-63
2021/05/06 02:35:14;;;;;;;4.07;3.40;;;4.80;99.90;;;;;;5059819;28;20209;-63
2021/05/06 02:37:41;;;;;;;5.70;3.67;;;4.90;99.90;;;;;;5066831;28;20244;-63
2021/05/06 02:40:10;;;;;;;4.17;3.47;;;4.90;99.90;;;;;;5068675;28;20184;-63
2021/05/06 02:42:38;;;;;;;3.77;3.20;;;4.80;99.90;;;;;;5067262;28;20773;-64
2021/05/06 02:45:08;;;;;;;5.30;3.67;;;4.80;99.90;;;;;;5063035;28;20281;-63
2021/05/06 02:47:36;;;;;;;5.20;3.60;;;4.80;99.90;;;;;;5066557;28;20206;-63
2021/05/06 02:50:07;;;;;;;5.70;3.67;;;4.80;99.90;;;;;;5063728;28;20196;-63
2021/05/06 02:52:36;;;;;;;3.57;3.27;;;4.70;99.90;;;;;;5063609;28;20191;-63
2021/05/06 02:55:09;;;;;;;5.83;3.40;;;4.70;99.90;;;;;;5074460;28;20306;-63
2021/05/06 02:57:40;;;;;;;5.17;3.90;;;4.60;99.90;;;;;;5065380;28;20253;-64
2021/05/06 03:02:57;;;;;;;4.37;3.67;;;4.50;99.90;;;;;;5064949;28;20287;-63
2021/05/06 03:05:28;;;;;;;6.27;3.80;;;4.40;99.90;;;;;;5064824;28;20271;-63
2021/05/06 03:08:03;;;;;;;4.83;3.70;;;4.30;99.90;;;;;;5062012;28;20228;-64
2021/05/06 03:10:42;;;;;;;3.83;3.53;;;4.30;99.90;;;;;;5060113;28;20250;-63
2021/05/06 03:13:33;;;;;;;6.33;3.90;;;4.30;99.90;;;;;;5066299;28;20199;-64
2021/05/06 03:24:21;;;;;;;7.57;4.00;;;4.30;99.90;;;;;;5070952;28;20283;-63
2021/05/06 03:26:49;;;;;;;7.33;4.03;;;4.30;99.90;;;;;;5069264;28;20727;-64
2021/05/06 03:29:19;;;;;;;13.43;4.17;;;4.20;99.90;;;;;;5069724;28;20675;-63
2021/05/06 03:32:06;;;;;;;4.60;3.90;;;4.20;99.90;;;;;;5066076;28;20224;-63
2021/05/06 03:34:47;;;;;;;7.43;4.53;;;4.20;99.90;;;;;;5063076;28;20384;-63
2021/05/06 03:43:04;;;;;;;4.90;4.00;;;4.20;99.90;;;;;;5050599;28;20211;-63
2021/05/06 04:16:59;;;;;;;7.73;4.73;;;4.20;99.90;;;;;;5058115;28;20224;-63
2021/05/06 04:27:59;;;;;;;5.53;4.97;;;4.10;99.90;;;;;;5063747;28;20271;-64
2021/05/06 04:30:49;;;;;;;7.07;4.70;;;4.10;99.90;;;;;;5065267;28;20195;-64
2021/05/06 04:36:23;;;;;;;7.87;4.80;;;4.10;99.90;;;;;;5063413;28;20215;-63
2021/05/06 04:38:51;;;;;;;8.50;4.80;;;4.10;99.90;;;;;;5064858;28;20199;-63
2021/05/06 04:41:32;;;;;;;7.47;5.03;;;4.10;99.90;;;;;;5065301;28;20208;-63
2021/05/06 04:55:11;;;;;;;6.57;5.30;;;4.30;99.90;;;;;;5062658;28;20215;-64
2021/05/06 05:03:32;;;;;;;9.07;5.70;;;4.40;99.90;;;;;;5065093;28;20282;-64
2021/05/06 05:06:00;;;;;;;10.53;5.00;;;4.50;99.90;;;;;;5070339;28;20647;-64
2021/05/06 05:08:32;;;;;;;5.60;5.10;;;4.60;99.90;;;;;;5067780;28;20262;-64
2021/05/06 05:11:21;;;;;;;9.23;4.80;;;4.70;99.90;;;;;;5067866;28;20200;-63
2021/05/06 05:19:41;;;;;;;6.63;5.07;;;5.10;99.90;;;;;;5058006;28;20196;-63
2021/05/06 05:24:58;;;;;;;7.87;4.87;;;5.20;99.90;;;;;;5063236;28;20790;-63
2021/05/06 05:27:27;;;;;;;7.30;4.67;;;5.30;99.90;;;;;;5067243;28;20282;-63
2021/05/06 05:29:54;;;;;;;5.67;5.07;;;5.40;99.90;;;;;;5060539;28;20664;-63
2021/05/06 05:32:22;;;;;;;6.17;4.67;;;5.40;99.90;;;;;;5066498;28;20223;-63
2021/05/06 05:34:55;;;;;;;6.67;4.50;;;5.50;99.90;;;;;;5065905;28;20857;-64
2021/05/06 05:37:28;;;;;;;6.80;4.40;;;5.70;99.90;;;;;;5068736;28;20429;-62
2021/05/06 05:40:08;;;;;;;5.77;4.40;;;5.70;99.90;;;;;;5064895;28;20195;-63
2021/05/06 05:42:45;;;;;;;8.53;4.70;;;5.80;99.90;;;;;;5065053;28;20200;-64
2021/05/06 05:56:12;;;;;;;6.97;4.90;;;6.10;99.90;;;;;;5066930;28;20216;-64
2021/05/06 05:58:41;;;;;;;4.63;4.20;;;6.30;99.90;;;;;;5068362;28;20200;-64
2021/05/06 06:01:10;;;;;;;7.60;4.50;;;6.50;99.90;;;;;;5057590;28;20196;-63
2021/05/06 06:03:37;;;;;;;7.13;4.17;;;6.70;99.90;;;;;;5066193;28;20287;-63
2021/05/06 06:06:05;;;;;;;5.10;4.50;;;6.90;99.90;;;;;;5068317;28;20857;-63
2021/05/06 06:08:36;;;;;;;11.77;5.17;;;6.90;99.90;;;;;;5067500;28;20275;-64
2021/05/06 06:11:03;;;;;;;5.93;4.37;;;7.00;99.90;;;;;;5063017;28;20574;-64
2021/05/06 06:13:31;;;;;;;9.03;4.40;;;7.10;99.90;;;;;;5061000;28;20220;-64
2021/05/06 06:16:01;;;;;;;7.00;4.90;;;7.10;99.90;;;;;;5062386;28;20239;-64
2021/05/06 06:18:37;;;;;;;6.03;4.37;;;7.40;99.90;;;;;;5063734;28;20290;-64
2021/05/06 06:21:08;;;;;;;6.23;4.37;;;7.50;99.90;;;;;;5066121;28;20196;-64
2021/05/06 06:23:38;;;;;;;5.60;4.57;;;7.80;99.90;;;;;;5069512;28;20233;-64
2021/05/06 06:26:05;;;;;;;6.73;4.63;;;8.00;99.90;;;;;;5069458;28;20222;-64
2021/05/06 06:28:37;;;;;;;9.00;4.00;;;8.20;99.90;;;;;;5067673;28;20202;-64
2021/05/06 06:31:12;;;;;;;4.40;3.97;;;8.40;99.90;;;;;;5068704;28;20196;-65
2021/05/06 06:33:40;;;;;;;4.97;4.07;;;8.50;99.90;;;;;;5068659;28;20202;-65
2021/05/06 06:36:08;;;;;;;4.73;4.07;;;8.80;99.90;;;;;;5065537;28;20235;-66
2021/05/06 06:38:35;;;;;;;5.70;4.10;;;8.80;99.90;;;;;;5064989;28;20195;-65
2021/05/06 06:41:04;;;;;;;5.93;3.80;;;9.00;99.90;;;;;;5076613;28;20257;-65
2021/05/06 06:43:31;;;;;;;8.37;4.57;;;9.50;99.90;;;;;;5065141;28;20654;-65
2021/05/06 06:45:59;;;;;;;8.53;5.20;;;9.70;99.90;;;;;;5062823;28;20716;-63
2021/05/06 06:48:33;;;;;;;7.90;5.40;;;9.80;99.90;;;;;;5065900;28;20193;-65
2021/05/06 06:51:01;;;;;;;7.47;5.07;;;9.70;99.90;;;;;;5061397;28;20726;-65
2021/05/06 06:53:29;;;;;;;8.03;5.57;;;9.60;99.90;;;;;;5062682;28;20675;-65
2021/05/06 06:55:57;;;;;;;8.63;5.20;;;9.70;99.90;;;;;;5058849;28;20228;-65
2021/05/06 06:58:30;;;;;;;13.07;5.40;;;9.90;99.90;;;;;;5062457;28;20192;-65
2021/05/06 07:00:58;;;;;;;9.63;5.37;;;10.20;99.90;;;;;;5062983;28;20270;-65
2021/05/06 07:03:26;;;;;;;5.20;4.67;;;10.40;99.90;;;;;;5067702;28;20223;-66
2021/05/06 07:05:54;;;;;;;7.73;4.40;;;10.60;99.90;;;;;;5064419;28;20284;-64
2021/05/06 07:08:24;;;;;;;8.47;4.80;;;10.80;99.90;;;;;;5062667;28;20662;-63
2021/05/06 07:10:53;;;;;;;6.53;4.77;;;10.80;99.90;;;;;;5063625;28;20195;-66
2021/05/06 07:13:21;;;;;;;5.07;4.50;;;10.90;99.90;;;;;;5059246;28;20188;-65
2021/05/06 07:15:52;;;;;;;8.87;4.37;;;11.10;99.90;;;;;;5066563;28;20290;-66
2021/05/06 07:18:20;;;;;;;8.47;4.93;;;11.30;99.90;;;;;;5061808;28;20262;-65
2021/05/06 07:20:49;;;;;;;5.80;4.13;;;11.50;99.90;;;;;;5059080;28;20607;-65
2021/05/06 07:23:19;;;;;;;5.33;4.13;;;11.70;99.90;;;;;;5067039;28;20246;-66
2021/05/06 07:25:51;;;;;;;5.23;3.50;;;12.10;99.90;;;;;;5070964;28;20185;-66
2021/05/06 07:28:23;;;;;;;5.87;3.50;;;12.20;99.90;;;;;;5071241;28;20562;-65
2021/05/06 07:30:52;;;;;;;4.43;3.90;;;12.10;99.90;;;;;;5055968;28;20200;-65
2021/05/06 07:33:23;;;;;;;3.87;3.47;;;11.90;99.90;;;;;;5066794;28;20199;-65
2021/05/06 07:35:53;;;;;;;3.77;3.53;;;11.60;99.90;;;;;;5061197;28;20220;-66
2021/05/06 07:38:27;;;;;;;4.40;3.60;;;11.40;99.90;;;;;;5066245;28;20195;-65
2021/05/06 07:40:58;;;;;;;4.57;3.10;;;11.60;99.90;;;;;;5060175;28;20223;-65
2021/05/06 07:43:29;;;;;;;5.10;3.40;;;11.80;99.90;;;;;;5062243;28;20187;-66
2021/05/06 07:46:00;;;;;;;6.57;3.27;;;11.80;99.90;;;;;;5066378;28;20287;-65
2021/05/06 07:48:31;;;;;;;4.67;3.43;;;11.50;99.90;;;;;;5063625;28;20220;-65
2021/05/06 07:51:02;;;;;;;5.77;3.77;;;11.60;99.90;;;;;;5067785;28;20669;-66
2021/05/06 07:53:42;;;;;;;3.70;3.40;;;11.90;99.90;;;;;;5062712;28;20193;-66
2021/05/06 07:56:12;;;;;;;4.93;3.53;;;12.40;99.90;;;;;;5067397;28;20264;-66
2021/05/06 07:58:40;;;;;;;4.30;2.90;;;12.80;99.90;;;;;;5063702;28;20272;-66
2021/05/06 08:01:08;;;;;;;6.30;3.07;;;13.20;99.90;;;;;;5073982;28;20240;-66
2021/05/06 08:03:36;;;;;;;6.83;3.47;;;13.50;99.90;;;;;;5077880;28;20187;-66
2021/05/06 08:06:04;;;;;;;3.17;2.70;;;13.50;99.90;;;;;;5066148;28;20238;-66
2021/05/06 08:08:31;;;;;;;4.33;3.00;;;13.90;99.90;;;;;;5064756;28;20199;-66
2021/05/06 08:11:00;;;;;;;3.97;2.80;;;13.80;99.90;;;;;;5069039;28;20674;-64
2021/05/06 08:13:31;;;;;;;4.67;3.07;;;14.30;99.90;;;;;;5072580;28;20200;-66
2021/05/06 08:15:59;;;;;;;3.87;2.57;;;14.40;99.90;;;;;;5059899;28;20270;-67
2021/05/06 08:18:26;;;;;;;3.87;2.77;;;14.80;99.90;;;;;;5067533;28;20227;-64
2021/05/06 08:20:59;;;;;;;3.90;2.60;;;15.00;99.90;;;;;;5067110;28;20195;-64
2021/05/06 08:23:27;;;;;;;6.20;3.07;;;15.10;99.90;;;;;;5067085;28;20184;-64
2021/05/06 08:25:54;;;;;;;2.57;2.37;;;15.20;99.90;;;;;;5066779;28;20196;-64
2021/05/06 08:28:43;;;;;;;4.13;2.40;;;15.90;99.90;;;;;;5062702;28;20554;-64
2021/05/06 08:31:10;;;;;;;3.13;2.60;;;16.20;99.90;;;;;;5063134;28;20204;-64
2021/05/06 08:33:38;;;;;;;5.53;2.87;;;16.20;99.90;;;;;;5073979;28;20199;-65
2021/05/06 08:36:06;;;;;;;2.53;2.33;;;16.30;99.90;;;;;;5064352;28;20215;-64
2021/05/06 08:38:33;;;;;;;2.43;2.10;;;16.80;99.90;;;;;;5070365;28;20578;-64
2021/05/06 08:41:01;;;;;;;3.97;2.60;;;17.10;99.90;;;;;;5068946;28;20192;-66
2021/05/06 08:43:31;;;;;;;2.70;2.50;;;17.20;99.90;;;;;;5071256;28;20199;-64
2021/05/06 08:46:00;;;;;;;3.20;2.90;;;16.80;99.90;;;;;;5068604;28;20185;-64
2021/05/06 08:48:31;;;;;;;3.83;2.67;;;16.50;99.90;;;;;;5071113;28;20196;-66
2021/05/06 08:51:03;;;;;;;3.33;2.80;;;16.20;99.90;;;;;;5069691;28;20203;-65
2021/05/06 08:53:31;;;;;;;2.67;2.43;;;15.30;99.90;;;;;;5070552;28;20192;-65
2021/05/06 08:55:58;;;;;;;3.30;3.00;;;14.90;99.90;;;;;;5069526;28;20220;-66
2021/05/06 08:58:25;;;;;;;3.00;2.40;;;15.30;99.90;;;;;;5068042;28;20207;-65
2021/05/06 09:00:53;;;;;;;2.10;2.00;;;15.60;99.90;;;;;;5067583;28;20216;-66
2021/05/06 09:03:21;;;;;;;3.03;2.23;;;16.10;99.90;;;;;;5064303;28;20659;-65
2021/05/06 09:06:13;;;;;;;2.63;2.43;;;16.50;99.90;;;;;;5063030;28;20196;-66
2021/05/06 09:08:43;;;;;;;3.23;2.93;;;17.30;99.90;;;;;;5062341;28;20196;-66
2021/05/06 09:11:11;;;;;;;3.73;2.53;;;18.10;99.90;;;;;;5067498;28;20197;-66
2021/05/06 09:13:39;;;;;;;6.40;2.57;;;18.50;99.90;;;;;;5068389;28;20242;-64
2021/05/06 09:16:07;;;;;;;3.43;2.60;;;18.60;99.90;;;;;;5067030;28;20202;-66
2021/05/06 09:18:40;;;;;;;3.07;2.80;;;18.30;99.90;;;;;;5069006;28;20217;-66
2021/05/06 09:21:27;;;;;;;4.13;3.20;;;18.60;99.90;;;;;;5065439;28;20214;-65
2021/05/06 09:24:09;;;;;;;3.37;2.50;;;18.60;99.90;;;;;;5065806;28;20229;-66
2021/05/06 09:26:38;;;;;;;2.83;2.47;;;18.20;99.90;;;;;;5069566;28;20278;-66
2021/05/06 09:29:08;;;;;;;2.77;2.37;;;18.00;99.90;;;;;;5061231;28;20246;-66
2021/05/06 09:31:37;;;;;;;2.53;2.40;;;17.80;99.90;;;;;;5067976;28;20249;-65
2021/05/06 09:34:07;;;;;;;2.50;2.40;;;17.60;99.90;;;;;;5065136;28;20192;-66
2021/05/06 09:36:36;;;;;;;3.20;2.83;;;17.30;99.90;;;;;;5071162;28;20215;-66
2021/05/06 09:39:08;;;;;;;2.53;2.33;;;16.40;99.90;;;;;;5071494;28;20192;-65
2021/05/06 09:41:37;;;;;;;2.70;2.50;;;15.50;99.90;;;;;;5075693;28;20283;-65
2021/05/06 09:44:09;;;;;;;2.07;1.93;;;15.00;99.90;;;;;;5069078;28;20192;-65
2021/05/06 09:46:59;;;;;;;2.67;2.47;;;14.20;99.90;;;;;;5067399;28;20193;-65
2021/05/06 09:49:29;;;;;;;2.87;2.67;;;13.70;99.90;;;;;;5067061;28;20585;-64
2021/05/06 09:51:58;;;;;;;3.03;2.70;;;13.50;99.90;;;;;;5066916;28;20227;-65
2021/05/06 09:54:27;;;;;;;2.80;2.60;;;13.50;99.90;;;;;;5072171;28;20199;-65
2021/05/06 09:56:57;;;;;;;2.90;2.70;;;13.60;99.90;;;;;;5077608;28;20208;-65
2021/05/06 09:59:30;;;;;;;3.87;3.00;;;13.70;99.90;;;;;;5062815;28;20202;-64
2021/05/06 10:02:08;;;;;;;3.10;2.77;;;13.70;99.90;;;;;;5066720;28;20192;-65
2021/05/06 10:04:40;;;;;;;5.07;3.20;;;13.50;99.90;;;;;;5069490;28;20196;-65
2021/05/06 10:07:11;;;;;;;3.00;2.80;;;13.70;99.90;;;;;;5063674;28;20200;-64
2021/05/06 10:09:59;;;;;;;7.60;2.87;;;13.80;99.90;;;;;;5069830;28;20631;-65
2021/05/06 10:12:28;;;;;;;3.67;3.27;;;13.70;99.90;;;;;;5066544;28;20258;-64
2021/05/06 10:14:56;;;;;;;5.57;2.87;;;13.60;99.90;;;;;;5067159;28;20184;-64
2021/05/06 10:17:25;;;;;;;3.50;3.20;;;13.60;99.90;;;;;;5066158;28;20644;-65
2021/05/06 10:19:56;;;;;;;2.30;2.20;;;13.60;99.90;;;;;;5067412;28;20195;-65
2021/05/06 10:22:26;;;;;;;3.07;2.60;;;13.70;99.90;;;;;;5065119;28;20663;-64
2021/05/06 10:24:57;;;;;;;2.97;2.33;;;13.50;99.90;;;;;;5068070;28;20330;-65
2021/05/06 10:27:26;;;;;;;2.23;2.17;;;13.30;99.90;;;;;;5067911;28;20222;-64
2021/05/06 10:29:57;;;;;;;3.13;2.80;;;13.30;99.90;;;;;;5065000;28;20195;-64
2021/05/06 10:32:26;;;;;;;4.67;2.53;;;13.30;99.90;;;;;;5066696;28;20271;-65
2021/05/06 10:34:56;;;;;;;2.77;2.57;;;13.40;99.90;;;;;;5067452;28;20192;-65
2021/05/06 10:37:26;;;;;;;2.40;2.23;;;13.50;99.90;;;;;;5067298;28;20212;-65
2021/05/06 10:39:55;;;;;;;2.77;1.90;;;13.70;99.90;;;;;;5060178;28;20219;-65
2021/05/06 10:42:33;;;;;;;2.30;2.20;;;13.70;99.90;;;;;;5060100;28;20200;-65
2021/05/06 10:45:23;;;;;;;2.67;2.43;;;13.80;99.90;;;;;;5065080;28;20191;-65
2021/05/06 10:47:53;;;;;;;2.10;1.97;;;13.90;99.90;;;;;;5063239;28;20184;-65
2021/05/06 10:50:23;;;;;;;3.57;2.60;;;14.00;99.90;;;;;;5065910;28;20218;-64
2021/05/06 10:52:52;;;;;;;3.17;2.40;;;14.00;99.90;;;;;;5065105;28;20307;-65
2021/05/06 10:55:42;;;;;;;3.83;2.73;;;14.00;99.90;;;;;;5045009;28;20196;-65
2021/05/06 10:58:32;;;;;;;6.83;2.90;;;14.10;99.90;;;;;;5062058;28;20292;-65
2021/05/06 11:01:40;;;;;;;3.00;2.73;;;14.30;99.90;;;;;;5067840;28;20195;-65
2021/05/06 11:04:11;;;;;;;2.97;2.60;;;14.30;99.90;;;;;;5066658;28;20197;-65
2021/05/06 11:06:48;;;;;;;3.70;2.60;;;14.60;99.90;;;;;;5066406;28;20192;-65
2021/05/06 11:09:56;;;;;;;3.87;2.73;;;14.80;99.90;;;;;;5068565;28;20199;-65
2021/05/06 11:12:37;;;;;;;2.80;2.67;;;15.30;99.90;;;;;;5068160;28;20188;-65
2021/05/06 11:15:26;;;;;;;2.57;2.47;;;15.30;99.90;;;;;;5068352;28;20202;-65
2021/05/06 11:17:54;;;;;;;4.77;3.00;;;15.00;99.90;;;;;;5067496;28;20289;-65
2021/05/06 11:20:46;;;;;;;5.77;2.73;;;14.50;99.90;;;;;;5067037;28;20196;-65
2021/05/06 11:23:26;;;;;;;3.30;2.50;;;13.90;99.90;;;;;;5061975;28;20234;-64
2021/05/06 11:26:17;;;;;;;3.73;2.80;;;13.20;99.90;;;;;;5064088;28;20426;-64
2021/05/06 11:28:49;;;;;;;3.63;2.73;;;12.80;99.90;;;;;;5059312;28;20555;-64
2021/05/06 11:31:37;;;;;;;5.43;2.70;;;12.60;99.90;;;;;;5067645;28;20199;-65
2021/05/06 11:34:37;;;;;;;2.73;2.43;;;12.60;99.90;;;;;;5066989;28;20307;-65
2021/05/06 11:37:14;;;;;;;3.43;2.53;;;12.50;99.90;;;;;;5067766;28;20310;-64
2021/05/06 11:39:51;;;;;;;4.17;3.13;;;12.60;99.90;;;;;;5078225;28;20257;-64
2021/05/06 11:42:18;;;;;;;3.10;2.90;;;12.60;99.90;;;;;;5066103;28;20601;-64
2021/05/06 11:45:11;;;;;;;3.13;2.93;;;12.90;99.90;;;;;;5067901;28;20226;-65
2021/05/06 11:47:38;;;;;;;5.80;3.67;;;13.10;99.90;;;;;;5064718;28;20192;-65
2021/05/06 11:50:27;;;;;;;4.03;3.37;;;13.30;99.90;;;;;;5061812;28;20637;-65
2021/05/06 11:52:56;;;;;;;4.57;3.23;;;13.50;99.90;;;;;;5068494;28;20683;-65
2021/05/06 11:55:40;;;;;;;7.13;3.30;;;13.40;99.90;;;;;;5068411;28;20245;-65
2021/05/06 11:58:09;;;;;;;8.80;2.83;;;13.30;99.90;;;;;;5067631;28;20216;-65
2021/05/06 12:00:39;;;;;;;4.13;2.60;;;13.30;99.90;;;;;;5065373;28;20184;-64
2021/05/06 12:03:08;;;;;;;4.23;2.47;;;13.40;99.90;;;;;;5065309;28;20200;-65
2021/05/06 12:06:03;;;;;;;2.70;2.50;;;13.20;99.90;;;;;;5067615;28;20295;-65
2021/05/06 12:08:32;;;;;;;3.37;3.07;;;13.10;99.90;;;;;;5028111;28;20291;-64
2021/05/06 12:11:05;;;;;;;8.77;3.07;;;13.00;99.90;;;;;;5055237;28;20218;-65
2021/05/06 12:13:35;;;;;;;5.90;2.67;;;12.90;99.90;;;;;;5082253;28;20365;-65
2021/05/06 12:16:14;;;;;;;10.73;3.00;;;13.00;99.90;;;;;;5070650;28;20202;-65
2021/05/06 12:18:42;;;;;;;6.47;2.90;;;13.10;99.90;;;;;;5084193;28;20232;-65
2021/05/06 12:21:12;;;;;;;5.90;3.30;;;13.30;99.90;;;;;;5071026;28;20629;-65
2021/05/06 12:23:48;;;;;;;5.13;3.27;;;13.60;99.90;;;;;;5061772;28;20287;-65
2021/05/06 12:26:18;;;;;;;3.03;2.80;;;13.70;99.90;;;;;;5070600;28;20188;-64
2021/05/06 12:28:45;;;;;;;4.70;3.07;;;14.00;99.90;;;;;;5071023;28;20206;-65
2021/05/06 12:31:13;;;;;;;3.57;2.80;;;14.00;99.90;;;;;;5068714;28;20196;-65
2021/05/06 12:33:40;;;;;;;3.70;2.70;;;14.00;99.90;;;;;;5070192;28;20196;-65
2021/05/06 12:36:12;;;;;;;4.77;2.60;;;14.10;99.90;;;;;;5064571;28;20245;-65
2021/05/06 12:38:41;;;;;;;4.20;2.33;;;14.10;99.90;;;;;;5067405;28;20308;-64
2021/05/06 12:41:09;;;;;;;6.07;2.70;;;14.30;99.90;;;;;;5068478;28;20242;-65
2021/05/06 12:43:46;;;;;;;3.90;2.20;;;14.20;99.90;;;;;;5068392;28;20782;-65
2021/05/06 12:46:13;;;;;;;2.60;2.17;;;14.20;99.90;;;;;;5068896;28;20693;-65
2021/05/06 12:48:44;;;;;;;3.93;2.00;;;14.30;99.90;;;;;;5066402;28;20584;-65
2021/05/06 12:51:14;;;;;;;3.97;2.10;;;14.30;99.90;;;;;;5069039;28;20199;-65
2021/05/06 12:53:59;;;;;;;2.57;2.20;;;14.20;99.90;;;;;;5066210;28;20200;-65
2021/05/06 12:56:28;;;;;;;4.37;2.00;;;14.10;99.90;;;;;;5070427;28;20240;-65
2021/05/06 12:58:56;;;;;;;3.30;2.23;;;14.10;99.90;;;;;;5069819;28;20200;-65
2021/05/06 13:01:34;;;;;;;6.97;2.40;;;14.10;99.90;;;;;;5065770;28;20552;-64
2021/05/06 13:04:02;;;;;;;2.00;1.90;;;14.10;99.90;;;;;;5069767;28;20287;-65
2021/05/06 13:06:34;;;;;;;3.83;2.30;;;14.20;99.90;;;;;;5070818;28;20188;-64
2021/05/06 13:09:12;;;;;;;2.13;2.03;;;14.20;99.90;;;;;;5064471;28;20283;-65
2021/05/06 13:11:40;;;;;;;2.20;2.00;;;14.20;99.90;;;;;;5070996;28;20203;-65
2021/05/06 13:14:08;;;;;;;2.13;1.97;;;14.30;99.90;;;;;;5068208;28;20601;-65
2021/05/06 13:16:38;;;;;;;2.23;2.10;;;14.40;99.90;;;;;;5069092;28;20306;-64
2021/05/06 13:19:07;;;;;;;5.70;1.90;;;14.30;99.90;;;;;;5082150;28;20684;-65
2021/05/06 13:21:49;;;;;;;3.03;2.20;;;14.30;99.90;;;;;;5064376;28;20188;-65
2021/05/06 13:24:21;;;;;;;2.47;2.17;;;14.50;99.90;;;;;;5064680;28;20191;-65
2021/05/06 13:26:49;;;;;;;3.90;2.40;;;14.60;99.90;;;;;;5070300;28;20681;-65
2021/05/06 13:29:21;;;;;;;3.77;2.50;;;14.50;99.90;;;;;;5073483;28;20228;-65
2021/05/06 13:31:51;;;;;;;5.37;2.30;;;14.40;99.90;;;;;;5070281;28;20202;-65
2021/05/06 13:34:20;;;;;;;4.80;2.43;;;14.50;99.90;;;;;;5069041;28;20292;-65
2021/05/06 13:37:00;;;;;;;3.37;2.40;;;14.40;99.90;;;;;;5069204;28;20204;-65
2021/05/06 13:39:28;;;;;;;2.53;2.30;;;14.30;99.90;;;;;;5065094;28;20613;-65
2021/05/06 13:41:55;;;;;;;2.83;2.20;;;14.20;99.90;;;;;;5075785;28;20864;-65
2021/05/06 13:44:26;;;;;;;3.07;1.90;;;14.00;99.90;;;;;;5069215;28;20304;-65
2021/05/06 13:46:58;;;;;;;4.60;2.80;;;13.80;99.90;;;;;;5068757;28;20191;-65
2021/05/06 13:49:27;;;;;;;5.77;3.30;;;13.60;99.90;;;;;;5070168;28;20282;-65
2021/05/06 13:51:56;;;;;;;11.30;3.10;;;13.70;99.90;;;;;;5069871;28;20208;-65
2021/05/06 13:54:26;;;;;;;5.07;3.30;;;13.60;99.90;;;;;;5066763;28;20219;-65
2021/05/06 13:56:54;;;;;;;5.13;3.20;;;13.40;99.90;;;;;;5075337;28;20232;-65
2021/05/06 13:59:23;;;;;;;6.73;2.90;;;13.50;99.90;;;;;;5070485;28;20184;-64
2021/05/06 14:01:53;;;;;;;3.57;2.90;;;13.50;99.90;;;;;;5061787;28;20298;-65
2021/05/06 14:04:21;;;;;;;7.63;2.87;;;13.20;99.90;;;;;;5059124;28;20207;-65
2021/05/06 14:06:49;;;;;;;8.50;3.10;;;13.20;99.90;;;;;;5067524;28;20639;-65
2021/05/06 14:09:18;;;;;;;8.83;3.57;;;13.00;99.90;;;;;;5067564;28;20195;-64
2021/05/06 14:11:47;;;;;;;5.67;3.30;;;12.80;99.90;;;;;;5069205;28;20192;-64
2021/05/06 14:14:16;;;;;;;5.40;3.00;;;12.60;99.90;;;;;;5067711;28;20539;-65
2021/05/06 14:16:45;;;;;;;5.87;3.10;;;12.50;99.90;;;;;;5067898;28;20296;-65
2021/05/06 14:19:14;;;;;;;7.40;3.50;;;12.40;99.90;;;;;;5064353;28;20218;-65
2021/05/06 14:21:45;;;;;;;6.33;3.43;;;12.30;99.90;;;;;;5067876;28;20192;-65
2021/05/06 14:24:14;;;;;;;3.90;3.00;;;12.20;99.90;;;;;;5066544;28;20192;-64
2021/05/06 14:26:44;;;;;;;5.93;3.13;;;12.10;99.90;;;;;;5065754;28;20639;-65
2021/05/06 14:29:12;;;;;;;5.13;2.80;;;12.20;99.90;;;;;;5059828;28;20191;-65
2021/05/06 14:31:40;;;;;;;3.47;3.10;;;12.30;99.90;;;;;;5066339;28;20273;-64
2021/05/06 14:34:08;;;;;;;4.33;3.10;;;12.30;99.90;;;;;;5064866;28;20689;-64
2021/05/06 14:36:36;;;;;;;7.03;3.43;;;12.20;99.90;;;;;;5065966;28;20283;-64
2021/05/06 14:39:06;;;;;;;8.43;3.60;;;12.30;99.90;;;;;;5067450;28;20622;-65
2021/05/06 14:41:34;;;;;;;8.43;4.00;;;12.30;99.90;;;;;;5070933;28;20208;-64
2021/05/06 14:44:01;;;;;;;4.90;3.97;;;12.30;99.90;;;;;;5063989;28;20200;-65
2021/05/06 14:46:29;;;;;;;8.77;4.80;;;12.20;99.90;;;;;;5065114;28;20200;-65
2021/05/06 14:48:56;;;;;;;10.43;5.13;;;12.20;99.90;;;;;;5062527;28;20192;-66
2021/05/06 14:51:25;;;;;;;8.10;6.57;;;12.10;99.90;;;;;;5062810;28;20200;-65
2021/05/06 14:53:52;;;;;;;10.23;7.23;;;11.80;99.90;;;;;;5071699;28;20228;-65
2021/05/06 14:56:19;;;;;;;9.20;7.80;;;11.30;99.90;;;;;;5064977;28;20632;-64
2021/05/06 14:58:47;;;;;;;10.97;8.47;;;10.90;99.90;;;;;;5065781;28;20710;-64
2021/05/06 15:01:14;;;;;;;12.37;8.73;;;10.40;99.90;;;;;;5066079;28;20777;-64
2021/05/06 15:03:42;;;;;;;12.23;9.30;;;10.10;99.90;;;;;;5065819;28;20188;-64
2021/05/06 15:06:09;;;;;;;12.07;9.00;;;9.70;99.90;;;;;;5065204;28;20204;-64
2021/05/06 15:08:43;;;;;;;10.80;9.10;;;9.60;99.90;;;;;;5065901;28;20234;-63
2021/05/06 15:11:13;;;;;;;16.67;9.60;;;9.50;99.90;;;;;;5070283;28;20773;-64
2021/05/06 15:13:41;;;;;;;11.83;9.60;;;9.40;99.90;;;;;;5065902;28;20196;-63
2021/05/06 15:16:08;;;;;;;12.83;9.17;;;9.20;99.90;;;;;;5065299;28;20227;-64
2021/05/06 15:18:35;;;;;;;11.57;9.20;;;9.10;99.90;;;;;;5066152;28;20713;-63
2021/05/06 15:21:03;;;;;;;18.17;10.27;;;9.00;99.90;;;;;;5061871;28;20200;-63
2021/05/06 15:23:31;;;;;;;16.43;9.23;;;8.90;99.90;;;;;;5065121;28;20204;-63
2021/05/06 15:25:59;;;;;;;10.30;9.20;;;8.70;99.90;;;;;;5061462;28;20279;-64
2021/05/06 15:28:27;;;;;;;10.90;8.80;;;8.70;99.90;;;;;;5065960;28;20326;-63
2021/05/06 15:30:56;;;;;;;9.80;8.73;;;8.80;99.90;;;;;;5063864;28;20230;-63
2021/05/06 15:33:23;;;;;;;10.60;8.90;;;8.70;99.90;;;;;;5069781;28;20200;-63
2021/05/06 15:35:51;;;;;;;10.53;8.70;;;8.60;99.90;;;;;;5065328;28;20601;-63
2021/05/06 15:38:19;;;;;;;9.73;8.73;;;8.60;99.90;;;;;;5067038;28;20210;-63
2021/05/06 15:40:47;;;;;;;10.87;8.33;;;8.50;99.90;;;;;;5067740;28;20184;-63
2021/05/06 15:43:16;;;;;;;10.57;8.30;;;8.50;99.90;;;;;;5065478;28;20199;-63
2021/05/06 15:45:45;;;;;;;9.53;8.43;;;8.50;99.90;;;;;;5065978;28;20294;-63
2021/05/06 15:48:14;;;;;;;9.10;8.17;;;8.60;99.90;;;;;;5067184;28;20218;-64
2021/05/06 15:50:42;;;;;;;12.73;9.30;;;8.60;99.90;;;;;;5062657;28;20617;-63